Welcome to Des Moines Iowa Weather. I am an independent private personal weather station on the Northwest Side of Des Moines, Iowa. Just East of Windsor Heights and just West of Glendale . This site is also mobile friendly.

There are no active watches, warnings or advisories


Visit our other weather sites:

Historical Data

Weather Station Setup



Weather Underground History page Text

Daily Summary for January 1, 2018 Units:  Metric    English   Both
« Previous Day
Next Day »
Daily Weekly Monthly Yearly Custom
  High: Low: Average:
Temperature: -19.2 °C -27.6 °C -23.8 °C
Dew Point: -23.9 °C -30.6 °C -27.3 °C
Humidity: 80 % 65 % 74 %
Wind Speed: 8 km/h 0 km/h 1.8 km/h
Wind Gust: 14.5 km/h - -
Wind:- - North
Pressure: 1050 hPa 1045.9 hPa -
Precipitation: 0 mm    
Historical Graphs
 
 
Tabular Data for January 1, 2018
Time Temperature Dew Point Pressure Wind Wind Speed Wind Gust Humidity Rainfall Rate (Hourly)
00:06 -26.1 °C -28.9 °C 1048.3 hPa North 1.6 km/h 8 km/h 76 % 0 mm
00:21 -26.2 °C -29.4 °C 1048 hPa Calm   6.4 km/h 76 % 0 mm
00:37 -26.3 °C -29.4 °C 1048 hPa North 3.2 km/h 9.7 km/h 76 % 0 mm
00:51 -26.4 °C -29.4 °C 1048 hPa North 3.2 km/h 6.4 km/h 76 % 0 mm
01:07 -26.6 °C -29.4 °C 1048.3 hPa Calm   12.9 km/h 76 % 0 mm
01:24 -26.7 °C -30 °C 1048.3 hPa North 1.6 km/h 3.2 km/h 76 % 0 mm
01:40 -26.8 °C -30 °C 1048.3 hPa North 3.2 km/h 8 km/h 76 % 0 mm
01:55 -26.8 °C -30 °C 1048.6 hPa North 1.6 km/h 9.7 km/h 76 % 0 mm
02:10 -26.8 °C -30 °C 1048.6 hPa North 1.6 km/h 9.7 km/h 76 % 0 mm
02:27 -26.8 °C -30 °C 1049 hPa North 3.2 km/h 9.7 km/h 76 % 0 mm
02:46 -26.8 °C -30 °C 1048.6 hPa North 1.6 km/h 12.9 km/h 76 % 0 mm
02:51 -26.9 °C -30 °C 1049 hPa North 6.4 km/h 12.9 km/h 76 % 0 mm
03:06 -26.9 °C -30 °C 1049 hPa Calm   4.8 km/h 76 % 0 mm
03:30 -27 °C -30 °C 1049 hPa North 6.4 km/h 6.4 km/h 76 % 0 mm
03:43 -27.1 °C -30 °C 1048.6 hPa North 1.6 km/h 4.8 km/h 76 % 0 mm
03:58 -27.2 °C -30 °C 1048.6 hPa North 3.2 km/h 6.4 km/h 76 % 0 mm
04:12 -27.2 °C -30 °C 1048.6 hPa North 1.6 km/h 9.7 km/h 76 % 0 mm
04:25 -27.2 °C -30 °C 1048.6 hPa North 1.6 km/h 8 km/h 76 % 0 mm
04:41 -27.2 °C -30 °C 1048.6 hPa Calm   8 km/h 76 % 0 mm
04:54 -27.2 °C -30 °C 1048.6 hPa Calm   4.8 km/h 76 % 0 mm
05:09 -27.3 °C -30.6 °C 1048.3 hPa North 1.6 km/h 4.8 km/h 76 % 0 mm
05:24 -27.3 °C -30.6 °C 1048.3 hPa Calm   9.7 km/h 76 % 0 mm
05:38 -27.3 °C -30 °C 1048.6 hPa Calm   6.4 km/h 77 % 0 mm
05:53 -27.3 °C -30 °C 1048.6 hPa Calm   4.8 km/h 77 % 0 mm
06:08 -27.3 °C -30.6 °C 1048.6 hPa North 1.6 km/h 6.4 km/h 76 % 0 mm
06:23 -27.3 °C -30.6 °C 1048.6 hPa Calm   9.7 km/h 76 % 0 mm
06:38 -27.3 °C -30.6 °C 1048.6 hPa North 1.6 km/h 6.4 km/h 76 % 0 mm
06:53 -27.4 °C -30.6 °C 1049 hPa North 3.2 km/h 3.2 km/h 76 % 0 mm
07:09 -27.4 °C -30.6 °C 1049 hPa North 1.6 km/h 6.4 km/h 76 % 0 mm
07:23 -27.5 °C -30.6 °C 1049 hPa Calm   3.2 km/h 76 % 0 mm
07:38 -27.5 °C -30.6 °C 1049 hPa Calm   1.6 km/h 76 % 0 mm
07:53 -27.6 °C -30.6 °C 1049 hPa Calm   3.2 km/h 76 % 0 mm
08:09 -27.6 °C -30.6 °C 1049 hPa Calm   4.8 km/h 76 % 0 mm
08:23 -27.5 °C -30.6 °C 1049 hPa Calm   1.6 km/h 77 % 0 mm
08:40 -27.3 °C -30 °C 1049.3 hPa Calm   4.8 km/h 77 % 0 mm
08:53 -26.3 °C -28.9 °C 1049.3 hPa North 1.6 km/h 9.7 km/h 78 % 0 mm
09:08 -25.5 °C -28.3 °C 1049.7 hPa North 6.4 km/h 9.7 km/h 76 % 0 mm
09:24 -25.3 °C -28.3 °C 1049.7 hPa North 8 km/h 8 km/h 76 % 0 mm
09:38 -24.8 °C -28.3 °C 1049.7 hPa North 1.6 km/h 12.9 km/h 74 % 0 mm
09:53 -24.3 °C -27.8 °C 1050 hPa North 3.2 km/h 6.4 km/h 73 % 0 mm
10:08 -24.1 °C -27.8 °C 1050 hPa North 6.4 km/h 9.7 km/h 71 % 0 mm
10:23 -23.7 °C -27.8 °C 1050 hPa North 4.8 km/h 12.9 km/h 70 % 0 mm
10:38 -23.1 °C -27.2 °C 1050 hPa North 3.2 km/h 6.4 km/h 71 % 0 mm
10:54 -23 °C -27.2 °C 1050 hPa North 3.2 km/h 8 km/h 70 % 0 mm
11:09 -22.4 °C -26.7 °C 1049.7 hPa North 3.2 km/h 9.7 km/h 70 % 0 mm
11:24 -22.2 °C -26.7 °C 1049.7 hPa North 4.8 km/h 14.5 km/h 69 % 0 mm
11:39 -21.8 °C -26.1 °C 1049.3 hPa North 4.8 km/h 6.4 km/h 69 % 0 mm
11:54 -21.5 °C -26.1 °C 1049.3 hPa North 3.2 km/h 9.7 km/h 68 % 0 mm
12:10 -20.8 °C -25 °C 1049 hPa North 4.8 km/h 12.9 km/h 68 % 0 mm
12:24 -20.4 °C -25 °C 1048.6 hPa North 1.6 km/h 6.4 km/h 67 % 0 mm
12:39 -20 °C -25 °C 1048.3 hPa North 3.2 km/h 12.9 km/h 66 % 0 mm
12:54 -19.8 °C -24.4 °C 1048.3 hPa North 4.8 km/h 8 km/h 66 % 0 mm
13:09 -19.7 °C -24.4 °C 1048.3 hPa Calm   9.7 km/h 66 % 0 mm
13:25 -19.3 °C -24.4 °C 1048 hPa North 3.2 km/h 9.7 km/h 65 % 0 mm
13:40 -19.2 °C -24.4 °C 1048 hPa North 3.2 km/h 9.7 km/h 65 % 0 mm
13:55 -19.4 °C -24.4 °C 1048 hPa North 4.8 km/h 14.5 km/h 65 % 0 mm
14:09 -19.3 °C -24.4 °C 1047.6 hPa North 4.8 km/h 12.9 km/h 66 % 0 mm
14:25 -19.6 °C -24.4 °C 1047.6 hPa North 1.6 km/h 6.4 km/h 66 % 0 mm
14:39 -19.4 °C -24.4 °C 1047.6 hPa North 3.2 km/h 6.4 km/h 66 % 0 mm
14:56 -19.5 °C -24.4 °C 1047.6 hPa North 4.8 km/h 12.9 km/h 66 % 0 mm
15:11 -19.7 °C -24.4 °C 1048 hPa North 1.6 km/h 8 km/h 67 % 0 mm
15:25 -19.7 °C -24.4 °C 1048 hPa North 1.6 km/h 8 km/h 67 % 0 mm
15:40 -19.7 °C -24.4 °C 1048 hPa North 3.2 km/h 12.9 km/h 68 % 0 mm
15:55 -19.7 °C -24.4 °C 1048 hPa North 3.2 km/h 9.7 km/h 68 % 0 mm
16:10 -19.8 °C -23.9 °C 1048 hPa North 3.2 km/h 6.4 km/h 69 % 0 mm
16:25 -19.9 °C -24.4 °C 1048 hPa Calm   3.2 km/h 69 % 0 mm
16:40 -20.2 °C -24.4 °C 1047.6 hPa Calm   4.8 km/h 69 % 0 mm
16:56 -20.6 °C -24.4 °C 1047.6 hPa Calm   4.8 km/h 70 % 0 mm
17:10 -20.9 °C -24.4 °C 1047.3 hPa Calm   4.8 km/h 72 % 0 mm
17:25 -21.2 °C -25 °C 1047.3 hPa Calm   4.8 km/h 73 % 0 mm
17:40 -21.5 °C -25 °C 1047.3 hPa Calm   3.2 km/h 73 % 0 mm
17:55 -21.5 °C -25 °C 1047 hPa Calm   4.8 km/h 74 % 0 mm
18:10 -21.6 °C -25 °C 1047 hPa North 1.6 km/h 1.6 km/h 74 % 0 mm
18:25 -21.8 °C -25.6 °C 1047 hPa North 1.6 km/h 6.4 km/h 74 % 0 mm
18:41 -22 °C -25.6 °C 1047 hPa North 1.6 km/h 3.2 km/h 75 % 0 mm
18:56 -22.1 °C -25.6 °C 1047 hPa North 1.6 km/h 4.8 km/h 75 % 0 mm
19:11 -22.2 °C -25.6 °C 1047 hPa Calm   3.2 km/h 76 % 0 mm
19:26 -22.3 °C -25.6 °C 1047 hPa Calm   1.6 km/h 76 % 0 mm
19:41 -22.4 °C -25.6 °C 1047 hPa Calm   1.6 km/h 76 % 0 mm
19:56 -22.6 °C -25.6 °C 1047 hPa Calm   1.6 km/h 76 % 0 mm
20:11 -22.8 °C -26.1 °C 1047 hPa Calm     76 % 0 mm
20:26 -22.9 °C -26.1 °C 1047 hPa Calm     76 % 0 mm
20:42 -23.1 °C -26.1 °C 1047 hPa Calm   1.6 km/h 77 % 0 mm
21:16 -23.2 °C -26.1 °C 1046.6 hPa Calm   1.6 km/h 78 % 0 mm
21:30 -23.2 °C -26.1 °C 1046.6 hPa Calm     78 % 0 mm
21:41 -23.3 °C -26.1 °C 1046.6 hPa Calm   1.6 km/h 78 % 0 mm
21:57 -23.3 °C -26.1 °C 1046.6 hPa Calm     78 % 0 mm
22:27 -23.5 °C -26.1 °C 1046.3 hPa Calm     79 % 0 mm
22:42 -23.6 °C -26.1 °C 1046.3 hPa Calm     79 % 0 mm
22:57 -23.6 °C -26.1 °C 1045.9 hPa Calm     79 % 0 mm
23:12 -23.7 °C -26.1 °C 1046.3 hPa Calm   3.2 km/h 79 % 0 mm
23:42 -23.7 °C -26.1 °C 1045.9 hPa Calm     80 % 0 mm
23:57 -23.8 °C -26.1 °C 1045.9 hPa Calm     80 % 0 mm
Des Moines Weather and Climate
Compliments of Weather Underground - 3 mb

Script developed by  Jim McMurry - jmcmurry@mwt.net Adapted for the template by  Wim van der Kuil - Leuven-Template.eu

You find our weather info also at:

Weather Underground

Equipment we use:

Weather-station
Davis VP2 Plus

Weather-program
Davis Weatherlink.Com

Weather-server
iMac (Retina 4K, 21.5-inch, Late 2015)

Provider
Hostmonster.com

Davis VP2 Plus

Davis Weatherlink.Com

iMac (Retina 4K, 21.5-inch, Late 2015)

Hostmonster.com